createdAt,value
2018-11-06T00:01:39.875Z,8.26
2018-11-06T00:04:08.866Z,8.30
2018-11-06T00:06:37.247Z,8.32
2018-11-06T00:09:07.735Z,8.34
2018-11-06T00:11:36.091Z,8.35
2018-11-06T00:14:04.859Z,8.37
2018-11-06T00:16:33.239Z,8.36
2018-11-06T00:19:01.639Z,8.35
2018-11-06T00:21:30.014Z,8.30
2018-11-06T00:23:58.412Z,8.26
2018-11-06T00:26:26.791Z,8.25
2018-11-06T00:28:55.200Z,8.24
2018-11-06T00:31:23.578Z,8.25
2018-11-06T00:33:51.975Z,8.26
2018-11-06T00:36:20.519Z,8.26
2018-11-06T00:38:48.919Z,8.27
2018-11-06T00:41:17.319Z,8.28
2018-11-06T00:43:45.714Z,8.30
2018-11-06T00:46:14.086Z,8.31
2018-11-06T00:48:42.482Z,8.34
2018-11-06T00:51:10.863Z,8.35
2018-11-06T00:53:39.255Z,8.35
2018-11-06T00:56:07.627Z,8.33
2018-11-06T00:58:36.023Z,8.30
2018-11-06T01:01:04.435Z,8.27
2018-11-06T01:03:38.199Z,8.18
2018-11-06T01:06:06.580Z,8.10
2018-11-06T01:08:34.979Z,8.00
2018-11-06T01:11:03.363Z,7.91
2018-11-06T01:13:31.767Z,7.85
2018-11-06T01:16:00.142Z,7.82
2018-11-06T01:18:28.563Z,7.77
2018-11-06T01:20:56.931Z,7.75
2018-11-06T01:23:25.340Z,7.76
2018-11-06T01:25:53.747Z,7.77
2018-11-06T01:28:22.122Z,7.79
2018-11-06T01:30:50.535Z,7.82
2018-11-06T01:33:18.915Z,7.83
2018-11-06T01:35:47.316Z,7.87
2018-11-06T01:38:15.687Z,7.90
2018-11-06T01:40:44.106Z,7.95
2018-11-06T01:43:12.483Z,7.96
2018-11-06T01:45:40.881Z,7.97
2018-11-06T01:48:09.254Z,7.99
2018-11-06T01:50:37.655Z,8.01
2018-11-06T01:53:06.071Z,8.01
2018-11-06T01:55:34.475Z,8.03
2018-11-06T01:58:02.851Z,8.04
2018-11-06T02:00:31.251Z,8.03
2018-11-06T02:02:59.632Z,8.03
2018-11-06T02:05:28.034Z,8.04
2018-11-06T02:07:56.415Z,8.02
2018-11-06T02:10:24.818Z,8.02
2018-11-06T02:12:53.196Z,8.02
2018-11-06T02:15:21.604Z,8.00
2018-11-06T02:17:49.983Z,7.99
2018-11-06T02:20:18.386Z,7.97
2018-11-06T02:22:47.190Z,7.96
2018-11-06T02:25:15.798Z,7.96
2018-11-06T02:27:44.183Z,7.92
2018-11-06T02:30:14.208Z,7.90
2018-11-06T02:32:43.373Z,7.88
2018-11-06T02:35:11.791Z,7.86
2018-11-06T02:37:40.163Z,7.84
2018-11-06T02:40:10.274Z,7.82
2018-11-06T02:42:38.678Z,7.82
2018-11-06T02:45:07.651Z,7.83
2018-11-06T02:47:36.107Z,7.83
2018-11-06T02:50:04.652Z,7.83
2018-11-06T02:52:33.038Z,7.83
2018-11-06T02:55:01.441Z,7.85
2018-11-06T02:57:29.814Z,7.85
2018-11-06T02:59:58.215Z,7.85
2018-11-06T03:02:26.602Z,7.88
2018-11-06T03:04:55.004Z,7.90
2018-11-06T03:07:23.391Z,7.93
2018-11-06T03:09:51.806Z,7.95
2018-11-06T03:12:20.174Z,7.97
2018-11-06T03:14:48.600Z,7.97
2018-11-06T03:17:16.978Z,7.99
2018-11-06T03:19:45.347Z,7.98
2018-11-06T03:22:13.742Z,7.99
2018-11-06T03:24:42.123Z,7.99
2018-11-06T03:27:10.611Z,8.01
2018-11-06T03:29:38.925Z,8.03
2018-11-06T03:32:07.338Z,8.03
2018-11-06T03:34:35.723Z,8.03
2018-11-06T03:37:04.136Z,8.04
2018-11-06T03:39:32.531Z,8.04
2018-11-06T03:42:00.966Z,8.04
2018-11-06T03:44:29.338Z,8.05
2018-11-06T03:46:57.734Z,8.04
2018-11-06T03:49:26.112Z,8.02
2018-11-06T03:51:54.526Z,8.01
2018-11-06T03:54:22.916Z,8.01
2018-11-06T03:56:51.318Z,7.99
2018-11-06T03:59:20.038Z,7.98
2018-11-06T04:01:48.442Z,7.96
2018-11-06T04:04:16.810Z,7.96
2018-11-06T04:06:45.213Z,7.95
2018-11-06T04:09:13.967Z,7.96
2018-11-06T04:11:42.674Z,7.98
2018-11-06T04:14:11.546Z,7.98
2018-11-06T04:16:40.354Z,7.98
2018-11-06T04:19:09.228Z,8.00
2018-11-06T04:21:38.763Z,8.00
2018-11-06T04:24:10.809Z,8.00
2018-11-06T04:26:39.610Z,8.01
2018-11-06T04:29:08.791Z,8.01
2018-11-06T04:31:37.808Z,8.00
2018-11-06T04:34:06.472Z,8.00
2018-11-06T04:36:34.874Z,7.98
2018-11-06T04:39:03.643Z,7.97
2018-11-06T04:41:32.061Z,7.96
2018-11-06T04:44:00.443Z,7.95
2018-11-06T04:46:28.851Z,7.93
2018-11-06T04:48:57.222Z,7.92
2018-11-06T04:51:25.622Z,7.91
2018-11-06T04:53:58.115Z,7.89
2018-11-06T04:56:26.823Z,7.88
2018-11-06T04:58:55.221Z,7.86
2018-11-06T05:01:23.999Z,7.85
2018-11-06T05:03:52.369Z,7.83
2018-11-06T05:06:20.770Z,7.81
2018-11-06T05:08:49.142Z,7.83
2018-11-06T05:11:17.542Z,7.82
2018-11-06T05:13:45.933Z,7.79
2018-11-06T05:16:14.323Z,7.79
2018-11-06T05:18:42.732Z,7.80
2018-11-06T05:21:11.106Z,7.80
2018-11-06T05:23:39.511Z,7.80
2018-11-06T05:26:07.896Z,7.81
2018-11-06T05:28:36.337Z,7.80
2018-11-06T05:31:04.870Z,7.81
2018-11-06T05:33:33.267Z,7.80
2018-11-06T05:36:01.637Z,7.80
2018-11-06T05:38:30.030Z,7.79
2018-11-06T05:41:02.645Z,7.78
2018-11-06T05:43:31.038Z,7.78
2018-11-06T05:45:59.497Z,7.77
2018-11-06T05:48:27.898Z,7.78
2018-11-06T05:50:56.303Z,7.76
2018-11-06T05:53:24.689Z,7.76
2018-11-06T05:55:53.066Z,7.74
2018-11-06T05:58:21.464Z,7.72
2018-11-06T06:00:49.835Z,7.72
2018-11-06T06:03:18.243Z,7.72
2018-11-06T06:05:46.623Z,7.71
2018-11-06T06:08:15.024Z,7.69
2018-11-06T06:10:43.395Z,7.68
2018-11-06T06:13:11.790Z,7.68
2018-11-06T06:15:40.170Z,7.68
2018-11-06T06:18:08.570Z,7.68
2018-11-06T06:20:36.946Z,7.68
2018-11-06T06:23:05.874Z,7.69
2018-11-06T06:25:34.288Z,7.70
2018-11-06T06:28:02.678Z,7.72
2018-11-06T06:30:31.062Z,7.73
2018-11-06T06:32:59.467Z,7.74
2018-11-06T06:35:27.877Z,7.77
2018-11-06T06:37:56.275Z,7.78
2018-11-06T06:40:24.654Z,7.81
2018-11-06T06:42:53.068Z,7.84
2018-11-06T06:45:21.442Z,7.86
2018-11-06T06:47:49.838Z,7.87
2018-11-06T06:50:19.325Z,7.91
2018-11-06T06:52:48.133Z,7.94
2018-11-06T06:55:17.158Z,7.97
2018-11-06T06:57:46.437Z,7.99
2018-11-06T07:00:16.422Z,8.01
2018-11-06T07:02:44.843Z,8.04
2018-11-06T07:05:14.450Z,8.07
2018-11-06T07:07:43.519Z,8.11
2018-11-06T07:10:13.659Z,8.14
2018-11-06T07:12:43.192Z,8.18
2018-11-06T07:15:16.888Z,8.22
2018-11-06T07:17:46.234Z,8.26
2018-11-06T07:20:19.018Z,8.31
2018-11-06T07:22:47.410Z,8.38
2018-11-06T07:25:16.013Z,8.44
2018-11-06T07:27:45.607Z,8.51
2018-11-06T07:30:15.801Z,8.59
2018-11-06T07:32:46.249Z,8.68
2018-11-06T07:35:15.420Z,8.78
2018-11-06T07:37:44.147Z,8.89
2018-11-06T07:40:13.770Z,9.00
2018-11-06T07:42:42.539Z,9.12
2018-11-06T07:45:14.109Z,9.20
2018-11-06T07:47:42.677Z,9.28
2018-11-06T07:50:11.816Z,9.36
2018-11-06T07:52:40.454Z,9.43
2018-11-06T07:55:11.148Z,9.49
2018-11-06T07:57:39.523Z,9.56
2018-11-06T08:00:13.765Z,9.62
2018-11-06T08:02:42.316Z,9.70
2018-11-06T08:05:10.947Z,9.78
2018-11-06T08:07:39.319Z,9.86
2018-11-06T08:10:08.421Z,9.95
2018-11-06T08:12:36.790Z,10.04
2018-11-06T08:15:05.639Z,10.12
2018-11-06T08:17:33.973Z,10.21
2018-11-06T08:20:02.452Z,10.31
2018-11-06T08:22:30.828Z,10.40
2018-11-06T08:24:59.226Z,10.51
2018-11-06T08:27:27.613Z,10.62
2018-11-06T08:29:56.041Z,10.74
2018-11-06T08:32:24.725Z,10.86
2018-11-06T08:34:52.838Z,10.99
2018-11-06T08:37:21.213Z,11.11
2018-11-06T08:39:49.610Z,11.21
2018-11-06T08:42:18.048Z,11.31
2018-11-06T08:44:46.443Z,11.39
2018-11-06T08:47:14.822Z,11.49
2018-11-06T08:49:43.217Z,11.57
2018-11-06T08:52:11.598Z,11.65
2018-11-06T08:54:40.091Z,11.71
2018-11-06T08:57:08.406Z,11.79
2018-11-06T08:59:36.810Z,11.84
2018-11-06T09:02:05.497Z,11.94
2018-11-06T09:04:33.890Z,11.99
2018-11-06T09:07:02.270Z,12.06
2018-11-06T09:09:30.671Z,12.09
2018-11-06T09:11:59.048Z,12.20
2018-11-06T09:14:27.460Z,12.26
2018-11-06T09:16:55.881Z,12.31
2018-11-06T09:19:24.294Z,12.37
2018-11-06T09:21:52.671Z,12.44
2018-11-06T09:24:21.042Z,12.51
2018-11-06T09:26:49.454Z,12.58
2018-11-06T09:29:17.830Z,12.66
2018-11-06T09:31:46.225Z,12.73
2018-11-06T09:34:14.598Z,12.80
2018-11-06T09:36:42.996Z,12.86
2018-11-06T09:39:12.051Z,12.93
2018-11-06T09:41:40.867Z,12.99
2018-11-06T09:44:09.257Z,13.04
2018-11-06T09:46:38.239Z,13.09
2018-11-06T09:49:07.003Z,13.13
2018-11-06T09:51:35.438Z,13.18
2018-11-06T09:54:03.826Z,13.22
2018-11-06T09:56:32.238Z,13.25
2018-11-06T09:59:00.614Z,13.28
2018-11-06T10:01:29.022Z,13.32
2018-11-06T10:03:57.398Z,13.37
2018-11-06T10:06:25.890Z,13.40
2018-11-06T10:08:54.230Z,13.46
2018-11-06T10:11:22.633Z,13.53
2018-11-06T10:13:51.019Z,13.57
2018-11-06T10:16:19.418Z,13.63
2018-11-06T10:18:47.790Z,13.68
2018-11-06T10:21:16.229Z,13.72
2018-11-06T10:23:44.731Z,13.78
2018-11-06T10:26:13.129Z,13.82
2018-11-06T10:28:41.510Z,13.87
2018-11-06T10:31:09.916Z,13.92
2018-11-06T10:33:38.291Z,13.97
2018-11-06T10:36:06.707Z,14.02
2018-11-06T10:38:35.089Z,14.07
2018-11-06T10:41:03.515Z,14.13
2018-11-06T10:43:31.886Z,14.18
2018-11-06T10:46:00.306Z,14.23
2018-11-06T10:48:28.700Z,14.27
2018-11-06T10:50:57.078Z,14.33
2018-11-06T10:53:25.483Z,14.39
2018-11-06T10:55:53.870Z,14.44
2018-11-06T10:58:22.263Z,14.49
2018-11-06T11:00:55.904Z,14.53
2018-11-06T11:03:28.553Z,14.58
2018-11-06T11:05:57.107Z,14.61
2018-11-06T11:08:25.514Z,14.67
2018-11-06T11:10:53.898Z,14.72
2018-11-06T11:13:22.328Z,14.76
2018-11-06T11:15:50.707Z,14.82
2018-11-06T11:18:19.106Z,14.84
2018-11-06T11:20:47.482Z,14.93
2018-11-06T11:23:15.883Z,14.96
2018-11-06T11:25:44.283Z,15.02
2018-11-06T11:28:12.699Z,15.05
2018-11-06T11:30:41.083Z,15.08
2018-11-06T11:33:09.488Z,15.11
2018-11-06T11:35:37.866Z,15.17
2018-11-06T11:38:06.273Z,15.20
2018-11-06T11:40:34.654Z,15.25
2018-11-06T11:43:03.082Z,15.29
2018-11-06T11:45:31.462Z,15.34
2018-11-06T11:47:59.861Z,15.39
2018-11-06T11:50:28.257Z,15.42
2018-11-06T11:52:56.654Z,15.47
2018-11-06T11:55:25.038Z,15.51
2018-11-06T11:57:53.448Z,15.54
2018-11-06T12:00:22.078Z,15.58
2018-11-06T12:02:50.497Z,15.60
2018-11-06T12:05:18.881Z,15.63
2018-11-06T12:07:47.263Z,15.67
2018-11-06T12:10:15.662Z,15.70
2018-11-06T12:12:44.038Z,15.73
2018-11-06T12:15:16.873Z,15.76
2018-11-06T12:17:46.249Z,15.77
2018-11-06T12:20:15.078Z,15.79
2018-11-06T12:22:43.459Z,15.82
2018-11-06T12:25:12.615Z,15.84
2018-11-06T12:27:40.850Z,15.85
2018-11-06T12:30:11.362Z,15.87
2018-11-06T12:32:40.301Z,15.89
2018-11-06T12:35:09.557Z,15.91
2018-11-06T12:37:38.211Z,15.93
2018-11-06T12:40:07.542Z,15.95
2018-11-06T12:42:36.206Z,15.97
2018-11-06T12:45:04.950Z,15.98
2018-11-06T12:47:33.331Z,16.00
2018-11-06T12:50:01.743Z,16.03
2018-11-06T12:52:30.159Z,16.04
2018-11-06T12:54:58.562Z,16.06
2018-11-06T12:57:26.947Z,16.05
2018-11-06T12:59:55.347Z,16.06
2018-11-06T13:02:23.737Z,16.06
2018-11-06T13:04:52.137Z,16.06
2018-11-06T13:07:20.523Z,16.08
2018-11-06T13:09:48.967Z,16.09
2018-11-06T13:12:17.347Z,16.11
2018-11-06T13:14:45.754Z,16.12
2018-11-06T13:17:14.990Z,16.13
2018-11-06T13:19:43.322Z,16.15
2018-11-06T13:22:11.738Z,16.17
2018-11-06T13:24:40.166Z,16.17
2018-11-06T13:27:08.555Z,16.17
2018-11-06T13:29:36.966Z,16.18
2018-11-06T13:32:05.583Z,16.18
2018-11-06T13:34:33.962Z,16.16
2018-11-06T13:37:02.363Z,16.15
2018-11-06T13:39:30.750Z,16.14
2018-11-06T13:41:59.192Z,16.13
2018-11-06T13:44:27.999Z,16.11
2018-11-06T13:46:56.117Z,16.12
2018-11-06T13:49:24.499Z,16.11
2018-11-06T13:51:52.968Z,16.09
2018-11-06T13:54:21.352Z,16.09
2018-11-06T13:56:49.753Z,16.08
2018-11-06T13:59:18.133Z,16.07
2018-11-06T14:01:46.530Z,16.07
2018-11-06T14:04:14.939Z,16.05
2018-11-06T14:06:43.338Z,16.04
2018-11-06T14:09:12.060Z,16.03
2018-11-06T14:11:40.763Z,15.98
2018-11-06T14:14:09.423Z,15.95
2018-11-06T14:16:38.030Z,15.90
2018-11-06T14:19:06.622Z,15.85
2018-11-06T14:21:35.203Z,15.78
2018-11-06T14:24:03.774Z,15.72
2018-11-06T14:26:32.228Z,15.67
2018-11-06T14:29:00.607Z,15.62
2018-11-06T14:31:29.230Z,15.58
2018-11-06T14:33:57.610Z,15.51
2018-11-06T14:36:26.053Z,15.45
2018-11-06T14:38:54.438Z,15.39
2018-11-06T14:41:22.854Z,15.33
2018-11-06T14:43:51.254Z,15.28
2018-11-06T14:46:19.655Z,15.21
2018-11-06T14:48:48.253Z,15.16
2018-11-06T14:51:16.465Z,15.10
2018-11-06T14:53:44.917Z,15.05
2018-11-06T14:56:13.296Z,14.99
2018-11-06T14:58:41.695Z,14.93
2018-11-06T15:01:10.082Z,14.84
2018-11-06T15:03:38.487Z,14.77
2018-11-06T15:06:07.140Z,14.71
2018-11-06T15:08:35.546Z,14.63
2018-11-06T15:11:03.930Z,14.57
2018-11-06T15:13:32.350Z,14.50
2018-11-06T15:16:00.736Z,14.43
2018-11-06T15:18:29.223Z,14.39
2018-11-06T15:20:57.635Z,14.34
2018-11-06T15:23:26.035Z,14.26
2018-11-06T15:25:54.426Z,14.20
2018-11-06T15:28:22.862Z,14.15
2018-11-06T15:30:51.225Z,14.07
2018-11-06T15:33:19.642Z,14.00
2018-11-06T15:35:48.025Z,13.95
2018-11-06T15:38:16.455Z,13.88
2018-11-06T15:40:44.897Z,13.81
2018-11-06T15:43:13.286Z,13.75
2018-11-06T15:45:41.670Z,13.68
2018-11-06T15:48:10.076Z,13.64
2018-11-06T15:50:38.455Z,13.57
2018-11-06T15:53:06.914Z,13.50
2018-11-06T15:55:35.294Z,13.45
2018-11-06T15:58:03.679Z,13.39
2018-11-06T16:00:32.094Z,13.34
2018-11-06T16:03:00.495Z,13.34
2018-11-06T16:05:28.898Z,13.40
2018-11-06T16:07:57.283Z,13.46
2018-11-06T16:10:25.696Z,13.55
2018-11-06T16:12:54.077Z,13.61
2018-11-06T16:15:22.585Z,13.63
2018-11-06T16:17:50.925Z,13.65
2018-11-06T16:20:20.496Z,13.65
2018-11-06T16:22:48.917Z,13.61
2018-11-06T16:25:18.279Z,13.59
2018-11-06T16:27:47.043Z,13.56
2018-11-06T16:30:17.705Z,13.50
2018-11-06T16:32:46.960Z,13.45
2018-11-06T16:35:16.602Z,13.43
2018-11-06T16:37:45.474Z,13.40
2018-11-06T16:40:14.495Z,13.42
2018-11-06T16:42:43.765Z,13.42
2018-11-06T16:45:14.462Z,13.42
2018-11-06T16:47:43.815Z,13.41
2018-11-06T16:50:13.547Z,13.40
2018-11-06T16:52:42.301Z,13.36
2018-11-06T16:55:11.222Z,13.32
2018-11-06T16:57:40.810Z,13.29
2018-11-06T17:00:11.240Z,13.24
2018-11-06T17:02:40.020Z,13.13
2018-11-06T17:05:09.310Z,13.01
2018-11-06T17:07:37.709Z,12.89
2018-11-06T17:10:07.718Z,12.77
2018-11-06T17:12:36.123Z,12.63
2018-11-06T17:15:04.726Z,12.49
2018-11-06T17:17:33.130Z,12.37
2018-11-06T17:20:01.506Z,12.25
2018-11-06T17:22:29.906Z,12.14
2018-11-06T17:24:58.322Z,12.05
2018-11-06T17:27:26.718Z,11.95
2018-11-06T17:29:55.153Z,11.88
2018-11-06T17:32:23.584Z,11.83
2018-11-06T17:34:51.974Z,11.80
2018-11-06T17:37:20.382Z,11.79
2018-11-06T17:39:48.761Z,11.82
2018-11-06T17:42:17.203Z,11.84
2018-11-06T17:44:45.610Z,11.83
2018-11-06T17:47:14.018Z,11.77
2018-11-06T17:49:42.405Z,11.73
2018-11-06T17:52:10.801Z,11.69
2018-11-06T17:54:39.169Z,11.66
2018-11-06T17:57:07.590Z,11.61
2018-11-06T17:59:36.016Z,11.55
2018-11-06T18:02:04.486Z,11.48
2018-11-06T18:04:33.013Z,11.41
2018-11-06T18:07:01.300Z,11.33
2018-11-06T18:09:29.675Z,11.24
2018-11-06T18:11:58.117Z,11.16
2018-11-06T18:14:26.514Z,11.07
2018-11-06T18:16:54.905Z,10.99
2018-11-06T18:19:23.399Z,10.93
2018-11-06T18:21:51.906Z,10.84
2018-11-06T18:24:20.282Z,10.75
2018-11-06T18:26:49.231Z,10.67
2018-11-06T18:29:17.627Z,10.62
2018-11-06T18:31:46.116Z,10.55
2018-11-06T18:34:14.679Z,10.50
2018-11-06T18:36:43.119Z,10.47
2018-11-06T18:39:13.351Z,10.42
2018-11-06T18:41:41.891Z,10.39
2018-11-06T18:44:10.484Z,10.31
2018-11-06T18:46:38.903Z,10.24
2018-11-06T18:49:07.923Z,10.17
2018-11-06T18:51:36.298Z,10.13
2018-11-06T18:54:04.946Z,10.09
2018-11-06T18:56:33.472Z,10.05
2018-11-06T18:59:01.883Z,10.01
2018-11-06T19:01:30.387Z,9.96
2018-11-06T19:03:58.799Z,9.92
2018-11-06T19:06:27.191Z,9.86
2018-11-06T19:08:55.603Z,9.80
2018-11-06T19:11:23.977Z,9.76
2018-11-06T19:13:52.377Z,9.71
2018-11-06T19:16:20.768Z,9.67
2018-11-06T19:18:49.183Z,9.62
2018-11-06T19:21:18.055Z,9.61
2018-11-06T19:23:46.477Z,9.57
2018-11-06T19:26:14.962Z,9.51
2018-11-06T19:28:43.364Z,9.48
2018-11-06T19:31:11.919Z,9.43
2018-11-06T19:33:40.315Z,9.39
2018-11-06T19:36:08.785Z,9.35
2018-11-06T19:38:37.186Z,9.30
2018-11-06T19:41:06.070Z,9.28
2018-11-06T19:43:34.470Z,9.25
2018-11-06T19:46:02.857Z,9.22
2018-11-06T19:48:31.411Z,9.19
2018-11-06T19:50:59.786Z,9.15
2018-11-06T19:53:28.225Z,9.08
2018-11-06T19:55:56.587Z,9.05
2018-11-06T19:58:24.995Z,9.00
2018-11-06T20:00:53.382Z,8.97
2018-11-06T20:03:21.801Z,8.94
2018-11-06T20:05:50.200Z,8.90
2018-11-06T20:08:18.611Z,8.84
2018-11-06T20:10:47.004Z,8.81
2018-11-06T20:13:15.422Z,8.76
2018-11-06T20:15:43.853Z,8.71
2018-11-06T20:18:12.214Z,8.68
2018-11-06T20:20:40.606Z,8.67
2018-11-06T20:23:09.001Z,8.67
2018-11-06T20:25:37.377Z,8.64
2018-11-06T20:28:05.799Z,8.63
2018-11-06T20:30:34.170Z,8.62
2018-11-06T20:33:02.647Z,8.60
2018-11-06T20:35:31.037Z,8.58
2018-11-06T20:37:59.556Z,8.54
2018-11-06T20:40:28.177Z,8.51
2018-11-06T20:42:56.747Z,8.49
2018-11-06T20:45:25.336Z,8.48
2018-11-06T20:47:53.762Z,8.45
2018-11-06T20:50:23.662Z,8.44
2018-11-06T20:52:52.140Z,8.43
2018-11-06T20:55:20.736Z,8.41
2018-11-06T20:57:49.143Z,8.35
2018-11-06T21:00:30.712Z,8.28
2018-11-06T21:03:00.493Z,8.22
2018-11-06T21:05:28.997Z,8.16
2018-11-06T21:07:57.389Z,8.12
2018-11-06T21:10:27.294Z,8.09
2018-11-06T21:12:55.726Z,8.04
2018-11-06T21:15:24.114Z,7.99
2018-11-06T21:17:52.518Z,7.96
2018-11-06T21:20:20.941Z,7.93
2018-11-06T21:22:49.470Z,7.91
2018-11-06T21:25:18.286Z,7.89
2018-11-06T21:27:46.638Z,7.87
2018-11-06T21:30:17.806Z,7.84
2018-11-06T21:32:47.499Z,7.83
2018-11-06T21:35:15.908Z,7.82
2018-11-06T21:37:44.550Z,7.81
2018-11-06T21:40:15.015Z,7.81
2018-11-06T21:42:43.989Z,7.79
2018-11-06T21:45:13.228Z,7.79
2018-11-06T21:47:42.483Z,7.76
2018-11-06T21:50:12.022Z,7.76
2018-11-06T21:52:40.674Z,7.74
2018-11-06T21:55:10.723Z,7.74
2018-11-06T21:57:39.145Z,7.72
2018-11-06T22:00:09.536Z,7.71
2018-11-06T22:02:38.193Z,7.66
2018-11-06T22:05:07.619Z,7.63
2018-11-06T22:07:35.994Z,7.55
2018-11-06T22:10:05.133Z,7.49
2018-11-06T22:12:33.570Z,7.43
2018-11-06T22:15:02.019Z,7.35
2018-11-06T22:17:30.392Z,7.25
2018-11-06T22:19:58.785Z,7.20
2018-11-06T22:22:27.221Z,7.13
2018-11-06T22:24:55.626Z,7.07
2018-11-06T22:27:24.068Z,7.02
2018-11-06T22:29:52.450Z,6.97
2018-11-06T22:32:20.826Z,6.92
2018-11-06T22:34:49.226Z,6.88
2018-11-06T22:37:17.602Z,6.84
2018-11-06T22:39:46.224Z,6.80
2018-11-06T22:42:14.624Z,6.77
2018-11-06T22:44:43.027Z,6.73
2018-11-06T22:47:11.398Z,6.69
2018-11-06T22:49:39.806Z,6.66
2018-11-06T22:52:08.219Z,6.61
2018-11-06T22:54:36.618Z,6.58
2018-11-06T22:57:05.003Z,6.55
2018-11-06T22:59:33.422Z,6.53
2018-11-06T23:02:01.819Z,6.49
2018-11-06T23:04:30.223Z,6.47
2018-11-06T23:06:58.708Z,6.45
2018-11-06T23:09:26.992Z,6.43
2018-11-06T23:11:55.391Z,6.40
2018-11-06T23:14:23.779Z,6.38
2018-11-06T23:16:52.187Z,6.36
2018-11-06T23:19:20.557Z,6.31
2018-11-06T23:21:48.965Z,6.27
2018-11-06T23:24:17.341Z,6.23
2018-11-06T23:26:45.737Z,6.19
2018-11-06T23:29:14.119Z,6.17
2018-11-06T23:31:42.551Z,6.12
2018-11-06T23:34:10.913Z,6.10
2018-11-06T23:36:39.307Z,6.08
2018-11-06T23:39:08.142Z,6.07
2018-11-06T23:41:36.681Z,6.04
2018-11-06T23:44:05.290Z,6.02
2018-11-06T23:46:33.700Z,5.99
2018-11-06T23:49:02.185Z,5.95
2018-11-06T23:51:30.589Z,5.92
2018-11-06T23:53:58.974Z,5.90
2018-11-06T23:56:27.456Z,5.87
2018-11-06T23:58:55.819Z,5.84
